sensor_id;sensor_type;location;lat;lon;timestamp;P1;durP1;ratioP1;P2;durP2;ratioP2
71080;SDS011;58740;50.672;18.690;2024-01-27T00:00:59;7.00;;;1.90;;
71080;SDS011;58740;50.672;18.690;2024-01-27T00:03:46;4.60;;;1.30;;
71080;SDS011;58740;50.672;18.690;2024-01-27T00:06:20;4.00;;;1.00;;
71080;SDS011;58740;50.672;18.690;2024-01-27T00:08:54;7.00;;;1.20;;
71080;SDS011;58740;50.672;18.690;2024-01-27T00:11:27;6.30;;;1.70;;
71080;SDS011;58740;50.672;18.690;2024-01-27T00:14:00;8.60;;;1.30;;
71080;SDS011;58740;50.672;18.690;2024-01-27T00:16:34;5.20;;;1.40;;
71080;SDS011;58740;50.672;18.690;2024-01-27T00:19:07;7.10;;;1.30;;
71080;SDS011;58740;50.672;18.690;2024-01-27T00:21:41;5.80;;;1.30;;
71080;SDS011;58740;50.672;18.690;2024-01-27T00:24:15;5.90;;;1.20;;
71080;SDS011;58740;50.672;18.690;2024-01-27T00:26:49;8.40;;;1.30;;
71080;SDS011;58740;50.672;18.690;2024-01-27T00:29:23;8.90;;;1.90;;
71080;SDS011;58740;50.672;18.690;2024-01-27T00:31:56;5.40;;;1.20;;
71080;SDS011;58740;50.672;18.690;2024-01-27T00:34:29;7.70;;;1.30;;
71080;SDS011;58740;50.672;18.690;2024-01-27T00:37:02;7.90;;;1.20;;
71080;SDS011;58740;50.672;18.690;2024-01-27T00:39:36;6.40;;;1.00;;
71080;SDS011;58740;50.672;18.690;2024-01-27T00:42:09;9.00;;;2.00;;
71080;SDS011;58740;50.672;18.690;2024-01-27T00:44:42;4.00;;;1.10;;
71080;SDS011;58740;50.672;18.690;2024-01-27T00:47:16;6.80;;;1.40;;
71080;SDS011;58740;50.672;18.690;2024-01-27T00:49:49;7.70;;;1.30;;
71080;SDS011;58740;50.672;18.690;2024-01-27T00:52:24;5.30;;;0.90;;
71080;SDS011;58740;50.672;18.690;2024-01-27T00:54:58;3.80;;;0.90;;
71080;SDS011;58740;50.672;18.690;2024-01-27T00:57:31;6.50;;;0.90;;
71080;SDS011;58740;50.672;18.690;2024-01-27T01:00:06;7.30;;;1.30;;
71080;SDS011;58740;50.672;18.690;2024-01-27T01:02:41;4.90;;;1.20;;
71080;SDS011;58740;50.672;18.690;2024-01-27T01:05:14;5.00;;;1.20;;
71080;SDS011;58740;50.672;18.690;2024-01-27T01:07:47;7.20;;;1.30;;
71080;SDS011;58740;50.672;18.690;2024-01-27T01:10:21;7.70;;;1.40;;
71080;SDS011;58740;50.672;18.690;2024-01-27T01:12:54;3.80;;;1.00;;
71080;SDS011;58740;50.672;18.690;2024-01-27T01:15:28;6.90;;;1.10;;
71080;SDS011;58740;50.672;18.690;2024-01-27T01:18:02;7.00;;;1.30;;
71080;SDS011;58740;50.672;18.690;2024-01-27T01:20:36;6.30;;;1.20;;
71080;SDS011;58740;50.672;18.690;2024-01-27T01:23:09;3.90;;;0.90;;
71080;SDS011;58740;50.672;18.690;2024-01-27T01:25:42;3.90;;;0.90;;
71080;SDS011;58740;50.672;18.690;2024-01-27T01:28:15;19.50;;;2.00;;
71080;SDS011;58740;50.672;18.690;2024-01-27T01:30:49;7.60;;;1.30;;
71080;SDS011;58740;50.672;18.690;2024-01-27T01:33:22;6.60;;;1.10;;
71080;SDS011;58740;50.672;18.690;2024-01-27T01:35:55;8.70;;;0.80;;
71080;SDS011;58740;50.672;18.690;2024-01-27T01:38:29;6.70;;;1.50;;
71080;SDS011;58740;50.672;18.690;2024-01-27T01:41:02;8.90;;;1.10;;
71080;SDS011;58740;50.672;18.690;2024-01-27T01:43:35;4.10;;;1.40;;
71080;SDS011;58740;50.672;18.690;2024-01-27T01:46:08;7.70;;;1.60;;
71080;SDS011;58740;50.672;18.690;2024-01-27T01:48:42;6.50;;;1.10;;
71080;SDS011;58740;50.672;18.690;2024-01-27T01:51:17;6.20;;;1.70;;
71080;SDS011;58740;50.672;18.690;2024-01-27T01:53:50;11.60;;;1.80;;
71080;SDS011;58740;50.672;18.690;2024-01-27T01:56:26;10.10;;;1.60;;
71080;SDS011;58740;50.672;18.690;2024-01-27T01:58:59;6.50;;;1.60;;
71080;SDS011;58740;50.672;18.690;2024-01-27T02:01:33;6.20;;;1.30;;
71080;SDS011;58740;50.672;18.690;2024-01-27T02:04:06;9.90;;;1.50;;
71080;SDS011;58740;50.672;18.690;2024-01-27T02:06:40;8.00;;;1.60;;
71080;SDS011;58740;50.672;18.690;2024-01-27T02:09:13;7.80;;;1.30;;
71080;SDS011;58740;50.672;18.690;2024-01-27T02:11:46;9.00;;;1.60;;
71080;SDS011;58740;50.672;18.690;2024-01-27T02:14:20;7.70;;;1.80;;
71080;SDS011;58740;50.672;18.690;2024-01-27T02:16:55;5.40;;;0.80;;
71080;SDS011;58740;50.672;18.690;2024-01-27T02:19:29;5.30;;;1.00;;
71080;SDS011;58740;50.672;18.690;2024-01-27T02:22:02;6.90;;;1.40;;
71080;SDS011;58740;50.672;18.690;2024-01-27T02:24:36;7.10;;;1.40;;
71080;SDS011;58740;50.672;18.690;2024-01-27T02:27:09;6.20;;;1.20;;
71080;SDS011;58740;50.672;18.690;2024-01-27T02:29:42;5.00;;;1.20;;
71080;SDS011;58740;50.672;18.690;2024-01-27T02:32:15;10.00;;;1.30;;
71080;SDS011;58740;50.672;18.690;2024-01-27T02:34:48;4.90;;;1.30;;
71080;SDS011;58740;50.672;18.690;2024-01-27T02:37:22;9.30;;;1.60;;
71080;SDS011;58740;50.672;18.690;2024-01-27T02:39:55;5.40;;;0.90;;
71080;SDS011;58740;50.672;18.690;2024-01-27T02:42:28;8.10;;;2.10;;
71080;SDS011;58740;50.672;18.690;2024-01-27T02:45:01;9.70;;;1.70;;
71080;SDS011;58740;50.672;18.690;2024-01-27T02:47:35;8.20;;;0.90;;
71080;SDS011;58740;50.672;18.690;2024-01-27T02:50:10;6.30;;;1.40;;
71080;SDS011;58740;50.672;18.690;2024-01-27T02:52:43;7.20;;;1.40;;
71080;SDS011;58740;50.672;18.690;2024-01-27T02:55:17;8.00;;;1.20;;
71080;SDS011;58740;50.672;18.690;2024-01-27T02:57:50;7.30;;;1.20;;
71080;SDS011;58740;50.672;18.690;2024-01-27T03:00:24;7.00;;;1.10;;
71080;SDS011;58740;50.672;18.690;2024-01-27T03:02:57;5.90;;;0.80;;
71080;SDS011;58740;50.672;18.690;2024-01-27T03:05:30;10.40;;;1.60;;
71080;SDS011;58740;50.672;18.690;2024-01-27T03:08:04;5.70;;;1.20;;
71080;SDS011;58740;50.672;18.690;2024-01-27T03:10:38;8.70;;;1.60;;
71080;SDS011;58740;50.672;18.690;2024-01-27T03:13:11;4.70;;;1.30;;
71080;SDS011;58740;50.672;18.690;2024-01-27T03:15:44;7.30;;;2.20;;
71080;SDS011;58740;50.672;18.690;2024-01-27T03:18:18;7.70;;;1.30;;
71080;SDS011;58740;50.672;18.690;2024-01-27T03:20:51;9.10;;;1.60;;
71080;SDS011;58740;50.672;18.690;2024-01-27T03:23:24;8.20;;;1.40;;
71080;SDS011;58740;50.672;18.690;2024-01-27T03:25:57;4.70;;;1.40;;
71080;SDS011;58740;50.672;18.690;2024-01-27T03:28:30;4.60;;;1.00;;
71080;SDS011;58740;50.672;18.690;2024-01-27T03:31:04;7.90;;;1.30;;
71080;SDS011;58740;50.672;18.690;2024-01-27T03:33:37;6.20;;;1.60;;
71080;SDS011;58740;50.672;18.690;2024-01-27T03:36:12;9.00;;;1.60;;
71080;SDS011;58740;50.672;18.690;2024-01-27T03:38:45;6.10;;;1.10;;
71080;SDS011;58740;50.672;18.690;2024-01-27T03:41:18;8.20;;;1.10;;
71080;SDS011;58740;50.672;18.690;2024-01-27T03:43:51;8.70;;;1.30;;
71080;SDS011;58740;50.672;18.690;2024-01-27T03:46:25;7.60;;;1.20;;
71080;SDS011;58740;50.672;18.690;2024-01-27T03:48:58;8.20;;;1.00;;
71080;SDS011;58740;50.672;18.690;2024-01-27T03:51:31;7.40;;;1.20;;
71080;SDS011;58740;50.672;18.690;2024-01-27T03:54:05;6.20;;;1.30;;
71080;SDS011;58740;50.672;18.690;2024-01-27T03:56:40;6.60;;;1.10;;
71080;SDS011;58740;50.672;18.690;2024-01-27T03:59:13;12.10;;;2.00;;
71080;SDS011;58740;50.672;18.690;2024-01-27T04:01:48;10.60;;;1.20;;
71080;SDS011;58740;50.672;18.690;2024-01-27T04:04:21;8.40;;;1.20;;
71080;SDS011;58740;50.672;18.690;2024-01-27T04:06:54;7.70;;;1.30;;
71080;SDS011;58740;50.672;18.690;2024-01-27T04:09:28;10.00;;;1.30;;
71080;SDS011;58740;50.672;18.690;2024-01-27T04:12:01;5.40;;;1.00;;
71080;SDS011;58740;50.672;18.690;2024-01-27T04:14:36;8.70;;;1.70;;
71080;SDS011;58740;50.672;18.690;2024-01-27T04:17:09;4.90;;;0.90;;
71080;SDS011;58740;50.672;18.690;2024-01-27T04:19:42;9.60;;;1.30;;
71080;SDS011;58740;50.672;18.690;2024-01-27T04:22:16;8.70;;;1.40;;
71080;SDS011;58740;50.672;18.690;2024-01-27T04:24:49;7.70;;;1.30;;
71080;SDS011;58740;50.672;18.690;2024-01-27T04:27:22;5.20;;;1.30;;
71080;SDS011;58740;50.672;18.690;2024-01-27T04:29:55;5.40;;;1.10;;
71080;SDS011;58740;50.672;18.690;2024-01-27T04:32:29;9.10;;;1.20;;
71080;SDS011;58740;50.672;18.690;2024-01-27T04:35:02;8.90;;;1.40;;
71080;SDS011;58740;50.672;18.690;2024-01-27T04:37:39;8.00;;;2.00;;
71080;SDS011;58740;50.672;18.690;2024-01-27T04:40:15;10.20;;;1.70;;
71080;SDS011;58740;50.672;18.690;2024-01-27T04:42:48;5.00;;;0.90;;
71080;SDS011;58740;50.672;18.690;2024-01-27T04:45:21;7.80;;;1.80;;
71080;SDS011;58740;50.672;18.690;2024-01-27T04:47:54;12.10;;;2.50;;
71080;SDS011;58740;50.672;18.690;2024-01-27T04:50:28;12.60;;;1.80;;
71080;SDS011;58740;50.672;18.690;2024-01-27T04:53:01;9.00;;;1.60;;
71080;SDS011;58740;50.672;18.690;2024-01-27T04:55:34;8.90;;;2.00;;
71080;SDS011;58740;50.672;18.690;2024-01-27T04:58:10;9.50;;;2.10;;
71080;SDS011;58740;50.672;18.690;2024-01-27T05:00:44;7.60;;;1.30;;
71080;SDS011;58740;50.672;18.690;2024-01-27T05:03:18;9.30;;;2.30;;
71080;SDS011;58740;50.672;18.690;2024-01-27T05:05:51;7.20;;;1.40;;
71080;SDS011;58740;50.672;18.690;2024-01-27T05:08:24;9.50;;;2.00;;
71080;SDS011;58740;50.672;18.690;2024-01-27T05:10:57;7.40;;;1.40;;
71080;SDS011;58740;50.672;18.690;2024-01-27T05:13:31;9.60;;;1.70;;
71080;SDS011;58740;50.672;18.690;2024-01-27T05:16:04;9.90;;;1.50;;
71080;SDS011;58740;50.672;18.690;2024-01-27T05:18:38;7.20;;;1.70;;
71080;SDS011;58740;50.672;18.690;2024-01-27T05:21:12;8.50;;;1.70;;
71080;SDS011;58740;50.672;18.690;2024-01-27T05:23:45;5.10;;;1.40;;
71080;SDS011;58740;50.672;18.690;2024-01-27T05:26:18;7.60;;;1.40;;
71080;SDS011;58740;50.672;18.690;2024-01-27T05:28:52;9.10;;;2.10;;
71080;SDS011;58740;50.672;18.690;2024-01-27T05:31:26;7.90;;;1.50;;
71080;SDS011;58740;50.672;18.690;2024-01-27T05:33:59;3.80;;;0.90;;
71080;SDS011;58740;50.672;18.690;2024-01-27T05:36:33;7.10;;;1.70;;
71080;SDS011;58740;50.672;18.690;2024-01-27T05:39:06;8.20;;;2.40;;
71080;SDS011;58740;50.672;18.690;2024-01-27T05:41:40;9.20;;;2.20;;
71080;SDS011;58740;50.672;18.690;2024-01-27T05:44:13;8.20;;;1.50;;
71080;SDS011;58740;50.672;18.690;2024-01-27T05:46:46;12.80;;;1.50;;
71080;SDS011;58740;50.672;18.690;2024-01-27T05:49:19;11.70;;;2.00;;
71080;SDS011;58740;50.672;18.690;2024-01-27T05:51:53;13.90;;;2.10;;
71080;SDS011;58740;50.672;18.690;2024-01-27T05:54:26;8.80;;;1.40;;
71080;SDS011;58740;50.672;18.690;2024-01-27T05:56:59;10.10;;;1.60;;
71080;SDS011;58740;50.672;18.690;2024-01-27T05:59:33;9.30;;;1.60;;
71080;SDS011;58740;50.672;18.690;2024-01-27T06:02:07;9.30;;;2.40;;
71080;SDS011;58740;50.672;18.690;2024-01-27T06:04:40;8.80;;;1.90;;
71080;SDS011;58740;50.672;18.690;2024-01-27T06:07:13;16.20;;;3.00;;
71080;SDS011;58740;50.672;18.690;2024-01-27T06:09:47;9.20;;;2.00;;
71080;SDS011;58740;50.672;18.690;2024-01-27T06:12:21;10.70;;;1.90;;
71080;SDS011;58740;50.672;18.690;2024-01-27T06:14:54;6.70;;;2.20;;
71080;SDS011;58740;50.672;18.690;2024-01-27T06:17:29;8.60;;;1.90;;
71080;SDS011;58740;50.672;18.690;2024-01-27T06:20:02;12.90;;;3.20;;
71080;SDS011;58740;50.672;18.690;2024-01-27T06:22:37;9.80;;;2.00;;
71080;SDS011;58740;50.672;18.690;2024-01-27T06:25:10;9.50;;;1.60;;
71080;SDS011;58740;50.672;18.690;2024-01-27T06:27:44;8.00;;;1.50;;
71080;SDS011;58740;50.672;18.690;2024-01-27T06:30:17;11.30;;;2.50;;
71080;SDS011;58740;50.672;18.690;2024-01-27T06:32:51;10.40;;;2.60;;
71080;SDS011;58740;50.672;18.690;2024-01-27T06:35:24;13.90;;;2.50;;
71080;SDS011;58740;50.672;18.690;2024-01-27T06:37:57;9.90;;;2.50;;
71080;SDS011;58740;50.672;18.690;2024-01-27T06:40:30;11.80;;;2.50;;
71080;SDS011;58740;50.672;18.690;2024-01-27T06:43:04;8.60;;;1.70;;
71080;SDS011;58740;50.672;18.690;2024-01-27T06:45:37;10.00;;;2.80;;
71080;SDS011;58740;50.672;18.690;2024-01-27T06:48:11;10.60;;;1.90;;
71080;SDS011;58740;50.672;18.690;2024-01-27T06:50:45;8.50;;;1.80;;
71080;SDS011;58740;50.672;18.690;2024-01-27T06:53:19;9.30;;;2.70;;
71080;SDS011;58740;50.672;18.690;2024-01-27T06:55:52;16.40;;;3.80;;
71080;SDS011;58740;50.672;18.690;2024-01-27T06:58:26;12.20;;;2.50;;
71080;SDS011;58740;50.672;18.690;2024-01-27T07:00:59;8.50;;;2.30;;
71080;SDS011;58740;50.672;18.690;2024-01-27T07:03:33;11.90;;;2.40;;
71080;SDS011;58740;50.672;18.690;2024-01-27T07:06:06;8.60;;;2.10;;
71080;SDS011;58740;50.672;18.690;2024-01-27T07:08:40;9.80;;;2.40;;
71080;SDS011;58740;50.672;18.690;2024-01-27T07:11:13;10.20;;;2.20;;
71080;SDS011;58740;50.672;18.690;2024-01-27T07:13:46;11.10;;;2.70;;
71080;SDS011;58740;50.672;18.690;2024-01-27T07:16:20;12.90;;;2.70;;
71080;SDS011;58740;50.672;18.690;2024-01-27T07:18:53;11.30;;;3.00;;
71080;SDS011;58740;50.672;18.690;2024-01-27T07:21:26;14.80;;;3.00;;
71080;SDS011;58740;50.672;18.690;2024-01-27T07:24:02;12.90;;;2.60;;
71080;SDS011;58740;50.672;18.690;2024-01-27T07:26:36;13.10;;;2.50;;
71080;SDS011;58740;50.672;18.690;2024-01-27T07:29:09;12.70;;;3.60;;
71080;SDS011;58740;50.672;18.690;2024-01-27T07:31:43;14.70;;;3.90;;
71080;SDS011;58740;50.672;18.690;2024-01-27T07:34:16;15.80;;;2.50;;
71080;SDS011;58740;50.672;18.690;2024-01-27T07:36:50;13.10;;;2.80;;
71080;SDS011;58740;50.672;18.690;2024-01-27T07:39:23;16.20;;;4.00;;
71080;SDS011;58740;50.672;18.690;2024-01-27T07:41:56;15.70;;;2.70;;
71080;SDS011;58740;50.672;18.690;2024-01-27T07:44:29;18.70;;;4.30;;
71080;SDS011;58740;50.672;18.690;2024-01-27T07:47:03;13.30;;;3.10;;
71080;SDS011;58740;50.672;18.690;2024-01-27T07:49:36;8.80;;;2.60;;
71080;SDS011;58740;50.672;18.690;2024-01-27T07:52:10;11.00;;;2.40;;
71080;SDS011;58740;50.672;18.690;2024-01-27T07:54:43;7.80;;;2.20;;
71080;SDS011;58740;50.672;18.690;2024-01-27T07:57:16;10.30;;;3.60;;
71080;SDS011;58740;50.672;18.690;2024-01-27T07:59:50;14.40;;;5.30;;
71080;SDS011;58740;50.672;18.690;2024-01-27T08:02:23;20.10;;;5.90;;
71080;SDS011;58740;50.672;18.690;2024-01-27T08:04:57;17.00;;;5.60;;
71080;SDS011;58740;50.672;18.690;2024-01-27T08:07:30;9.70;;;3.00;;
71080;SDS011;58740;50.672;18.690;2024-01-27T08:10:04;15.10;;;4.00;;
71080;SDS011;58740;50.672;18.690;2024-01-27T08:12:41;12.60;;;3.30;;
71080;SDS011;58740;50.672;18.690;2024-01-27T08:15:14;37.50;;;12.50;;
71080;SDS011;58740;50.672;18.690;2024-01-27T08:17:48;37.50;;;15.20;;
71080;SDS011;58740;50.672;18.690;2024-01-27T08:20:21;28.60;;;8.80;;
71080;SDS011;58740;50.672;18.690;2024-01-27T08:22:54;17.70;;;6.90;;
71080;SDS011;58740;50.672;18.690;2024-01-27T08:25:28;17.70;;;5.40;;
71080;SDS011;58740;50.672;18.690;2024-01-27T08:28:01;14.30;;;4.70;;
71080;SDS011;58740;50.672;18.690;2024-01-27T08:30:35;14.10;;;4.50;;
71080;SDS011;58740;50.672;18.690;2024-01-27T08:33:08;19.00;;;5.60;;
71080;SDS011;58740;50.672;18.690;2024-01-27T08:35:42;14.70;;;5.30;;
71080;SDS011;58740;50.672;18.690;2024-01-27T08:38:17;19.90;;;6.50;;
71080;SDS011;58740;50.672;18.690;2024-01-27T08:40:51;17.00;;;5.80;;
71080;SDS011;58740;50.672;18.690;2024-01-27T08:43:24;17.40;;;6.20;;
71080;SDS011;58740;50.672;18.690;2024-01-27T08:45:57;19.80;;;5.00;;
71080;SDS011;58740;50.672;18.690;2024-01-27T08:48:34;12.90;;;3.30;;
71080;SDS011;58740;50.672;18.690;2024-01-27T08:51:09;10.30;;;3.20;;
71080;SDS011;58740;50.672;18.690;2024-01-27T08:53:43;16.60;;;4.80;;
71080;SDS011;58740;50.672;18.690;2024-01-27T08:56:19;15.10;;;5.40;;
71080;SDS011;58740;50.672;18.690;2024-01-27T08:58:52;13.20;;;4.70;;
71080;SDS011;58740;50.672;18.690;2024-01-27T09:01:25;15.30;;;4.60;;
71080;SDS011;58740;50.672;18.690;2024-01-27T09:03:59;12.20;;;4.30;;
71080;SDS011;58740;50.672;18.690;2024-01-27T09:06:32;14.50;;;4.90;;
71080;SDS011;58740;50.672;18.690;2024-01-27T09:09:05;17.60;;;3.80;;
71080;SDS011;58740;50.672;18.690;2024-01-27T09:11:39;16.90;;;4.40;;
71080;SDS011;58740;50.672;18.690;2024-01-27T09:14:12;11.90;;;4.40;;
71080;SDS011;58740;50.672;18.690;2024-01-27T09:16:46;18.70;;;6.70;;
71080;SDS011;58740;50.672;18.690;2024-01-27T09:19:19;14.20;;;5.20;;
71080;SDS011;58740;50.672;18.690;2024-01-27T09:21:52;14.60;;;4.70;;
71080;SDS011;58740;50.672;18.690;2024-01-27T09:24:25;17.90;;;6.30;;
71080;SDS011;58740;50.672;18.690;2024-01-27T09:26:59;14.00;;;4.60;;
71080;SDS011;58740;50.672;18.690;2024-01-27T09:29:32;13.70;;;4.20;;
71080;SDS011;58740;50.672;18.690;2024-01-27T09:32:06;15.10;;;5.70;;
71080;SDS011;58740;50.672;18.690;2024-01-27T09:34:40;15.00;;;4.80;;
71080;SDS011;58740;50.672;18.690;2024-01-27T09:37:13;10.30;;;3.50;;
71080;SDS011;58740;50.672;18.690;2024-01-27T09:39:47;12.50;;;3.90;;
71080;SDS011;58740;50.672;18.690;2024-01-27T09:42:21;12.70;;;3.90;;
71080;SDS011;58740;50.672;18.690;2024-01-27T09:44:57;14.20;;;5.20;;
71080;SDS011;58740;50.672;18.690;2024-01-27T09:47:33;29.70;;;10.20;;
71080;SDS011;58740;50.672;18.690;2024-01-27T09:50:09;16.50;;;5.80;;
71080;SDS011;58740;50.672;18.690;2024-01-27T09:52:45;19.20;;;5.50;;
71080;SDS011;58740;50.672;18.690;2024-01-27T09:55:18;11.20;;;4.10;;
71080;SDS011;58740;50.672;18.690;2024-01-27T09:57:53;12.50;;;3.40;;
71080;SDS011;58740;50.672;18.690;2024-01-27T10:00:27;8.80;;;3.30;;
71080;SDS011;58740;50.672;18.690;2024-01-27T10:03:01;12.00;;;3.20;;
71080;SDS011;58740;50.672;18.690;2024-01-27T10:05:37;10.10;;;3.40;;
71080;SDS011;58740;50.672;18.690;2024-01-27T10:08:13;18.30;;;5.40;;
71080;SDS011;58740;50.672;18.690;2024-01-27T10:10:46;11.10;;;3.20;;
71080;SDS011;58740;50.672;18.690;2024-01-27T10:13:20;7.40;;;2.40;;
71080;SDS011;58740;50.672;18.690;2024-01-27T10:16:04;9.20;;;3.40;;
71080;SDS011;58740;50.672;18.690;2024-01-27T10:18:38;12.80;;;4.20;;
71080;SDS011;58740;50.672;18.690;2024-01-27T10:21:15;8.60;;;2.40;;
71080;SDS011;58740;50.672;18.690;2024-01-27T10:23:50;10.90;;;2.70;;
71080;SDS011;58740;50.672;18.690;2024-01-27T10:26:24;17.10;;;3.50;;
71080;SDS011;58740;50.672;18.690;2024-01-27T10:28:57;16.00;;;4.30;;
71080;SDS011;58740;50.672;18.690;2024-01-27T10:31:33;18.60;;;4.60;;
71080;SDS011;58740;50.672;18.690;2024-01-27T10:34:07;10.40;;;2.30;;
71080;SDS011;58740;50.672;18.690;2024-01-27T10:36:46;14.90;;;3.40;;
71080;SDS011;58740;50.672;18.690;2024-01-27T10:39:21;19.40;;;5.20;;
71080;SDS011;58740;50.672;18.690;2024-01-27T10:41:55;17.50;;;5.70;;
71080;SDS011;58740;50.672;18.690;2024-01-27T10:44:33;14.30;;;4.80;;
71080;SDS011;58740;50.672;18.690;2024-01-27T10:47:15;13.90;;;5.20;;
71080;SDS011;58740;50.672;18.690;2024-01-27T10:49:53;13.20;;;4.00;;
71080;SDS011;58740;50.672;18.690;2024-01-27T10:52:31;12.80;;;3.70;;
71080;SDS011;58740;50.672;18.690;2024-01-27T10:55:11;12.20;;;3.80;;
71080;SDS011;58740;50.672;18.690;2024-01-27T10:57:46;16.00;;;4.10;;
71080;SDS011;58740;50.672;18.690;2024-01-27T11:00:23;13.50;;;4.20;;
71080;SDS011;58740;50.672;18.690;2024-01-27T11:02:59;20.30;;;5.40;;
71080;SDS011;58740;50.672;18.690;2024-01-27T11:05:36;17.40;;;6.30;;
71080;SDS011;58740;50.672;18.690;2024-01-27T11:08:13;14.10;;;5.30;;
71080;SDS011;58740;50.672;18.690;2024-01-27T11:10:47;16.40;;;4.90;;
71080;SDS011;58740;50.672;18.690;2024-01-27T11:13:21;11.30;;;4.40;;
71080;SDS011;58740;50.672;18.690;2024-01-27T11:15:55;11.20;;;3.80;;
71080;SDS011;58740;50.672;18.690;2024-01-27T11:18:30;15.30;;;4.20;;
71080;SDS011;58740;50.672;18.690;2024-01-27T11:21:05;18.80;;;9.00;;
71080;SDS011;58740;50.672;18.690;2024-01-27T11:23:38;14.20;;;6.70;;
71080;SDS011;58740;50.672;18.690;2024-01-27T11:26:16;17.00;;;6.60;;
71080;SDS011;58740;50.672;18.690;2024-01-27T11:28:51;12.80;;;4.70;;
71080;SDS011;58740;50.672;18.690;2024-01-27T11:31:24;14.40;;;5.80;;
71080;SDS011;58740;50.672;18.690;2024-01-27T11:34:00;18.30;;;4.90;;
71080;SDS011;58740;50.672;18.690;2024-01-27T11:36:35;15.70;;;5.10;;
71080;SDS011;58740;50.672;18.690;2024-01-27T11:39:24;16.20;;;7.70;;
71080;SDS011;58740;50.672;18.690;2024-01-27T11:42:07;11.80;;;5.10;;
71080;SDS011;58740;50.672;18.690;2024-01-27T11:44:43;14.70;;;5.80;;
71080;SDS011;58740;50.672;18.690;2024-01-27T11:47:18;17.10;;;6.70;;
71080;SDS011;58740;50.672;18.690;2024-01-27T11:49:54;13.90;;;5.70;;
71080;SDS011;58740;50.672;18.690;2024-01-27T11:52:29;15.10;;;5.60;;
71080;SDS011;58740;50.672;18.690;2024-01-27T11:55:02;10.70;;;3.90;;
71080;SDS011;58740;50.672;18.690;2024-01-27T11:57:38;13.70;;;4.90;;
71080;SDS011;58740;50.672;18.690;2024-01-27T12:00:13;35.90;;;12.40;;
71080;SDS011;58740;50.672;18.690;2024-01-27T12:02:51;23.00;;;8.90;;
71080;SDS011;58740;50.672;18.690;2024-01-27T12:05:25;13.50;;;5.10;;
71080;SDS011;58740;50.672;18.690;2024-01-27T12:07:58;13.80;;;5.20;;
71080;SDS011;58740;50.672;18.690;2024-01-27T12:10:31;17.70;;;5.40;;
71080;SDS011;58740;50.672;18.690;2024-01-27T12:13:05;16.00;;;5.20;;
71080;SDS011;58740;50.672;18.690;2024-01-27T12:15:38;16.90;;;5.30;;
71080;SDS011;58740;50.672;18.690;2024-01-27T12:18:12;17.30;;;5.70;;
71080;SDS011;58740;50.672;18.690;2024-01-27T12:20:56;11.50;;;4.40;;
71080;SDS011;58740;50.672;18.690;2024-01-27T12:23:29;11.90;;;4.00;;
71080;SDS011;58740;50.672;18.690;2024-01-27T12:26:02;17.00;;;6.50;;
71080;SDS011;58740;50.672;18.690;2024-01-27T12:28:36;15.10;;;5.30;;
71080;SDS011;58740;50.672;18.690;2024-01-27T12:31:09;23.20;;;9.60;;
71080;SDS011;58740;50.672;18.690;2024-01-27T12:33:49;19.30;;;7.20;;
71080;SDS011;58740;50.672;18.690;2024-01-27T12:36:24;10.90;;;4.20;;
71080;SDS011;58740;50.672;18.690;2024-01-27T12:38:59;19.10;;;6.60;;
71080;SDS011;58740;50.672;18.690;2024-01-27T12:41:34;17.00;;;6.30;;
71080;SDS011;58740;50.672;18.690;2024-01-27T12:44:07;15.70;;;5.10;;
71080;SDS011;58740;50.672;18.690;2024-01-27T12:46:41;21.60;;;5.50;;
71080;SDS011;58740;50.672;18.690;2024-01-27T12:49:14;13.90;;;5.30;;
71080;SDS011;58740;50.672;18.690;2024-01-27T12:51:49;12.30;;;4.30;;
71080;SDS011;58740;50.672;18.690;2024-01-27T12:54:22;10.90;;;2.60;;
71080;SDS011;58740;50.672;18.690;2024-01-27T12:56:56;13.30;;;4.30;;
71080;SDS011;58740;50.672;18.690;2024-01-27T12:59:30;12.30;;;3.20;;
71080;SDS011;58740;50.672;18.690;2024-01-27T13:02:03;10.40;;;3.00;;
71080;SDS011;58740;50.672;18.690;2024-01-27T13:04:36;9.00;;;3.30;;
71080;SDS011;58740;50.672;18.690;2024-01-27T13:07:10;13.10;;;5.10;;
71080;SDS011;58740;50.672;18.690;2024-01-27T13:09:44;10.50;;;4.60;;
71080;SDS011;58740;50.672;18.690;2024-01-27T13:12:17;15.40;;;5.40;;
71080;SDS011;58740;50.672;18.690;2024-01-27T13:14:50;13.40;;;5.20;;
71080;SDS011;58740;50.672;18.690;2024-01-27T13:17:25;10.20;;;4.40;;
71080;SDS011;58740;50.672;18.690;2024-01-27T13:19:59;12.60;;;3.90;;
71080;SDS011;58740;50.672;18.690;2024-01-27T13:22:32;15.10;;;4.80;;
71080;SDS011;58740;50.672;18.690;2024-01-27T13:25:07;12.20;;;3.70;;
71080;SDS011;58740;50.672;18.690;2024-01-27T13:27:40;12.10;;;3.40;;
71080;SDS011;58740;50.672;18.690;2024-01-27T13:30:14;10.00;;;3.80;;
71080;SDS011;58740;50.672;18.690;2024-01-27T13:32:48;8.70;;;2.70;;
71080;SDS011;58740;50.672;18.690;2024-01-27T13:35:21;15.80;;;7.00;;
71080;SDS011;58740;50.672;18.690;2024-01-27T13:37:55;18.50;;;6.70;;
71080;SDS011;58740;50.672;18.690;2024-01-27T13:40:28;11.30;;;4.30;;
71080;SDS011;58740;50.672;18.690;2024-01-27T13:43:01;17.50;;;5.70;;
71080;SDS011;58740;50.672;18.690;2024-01-27T13:45:35;14.70;;;4.00;;
71080;SDS011;58740;50.672;18.690;2024-01-27T13:48:09;14.10;;;4.90;;
71080;SDS011;58740;50.672;18.690;2024-01-27T13:50:43;22.10;;;6.60;;
71080;SDS011;58740;50.672;18.690;2024-01-27T13:53:16;19.00;;;6.10;;
71080;SDS011;58740;50.672;18.690;2024-01-27T13:55:51;17.80;;;4.90;;
71080;SDS011;58740;50.672;18.690;2024-01-27T13:58:25;15.30;;;6.20;;
71080;SDS011;58740;50.672;18.690;2024-01-27T14:00:58;16.90;;;5.30;;
71080;SDS011;58740;50.672;18.690;2024-01-27T14:03:31;14.10;;;4.80;;
71080;SDS011;58740;50.672;18.690;2024-01-27T14:06:06;20.10;;;7.30;;
71080;SDS011;58740;50.672;18.690;2024-01-27T14:08:44;11.00;;;5.00;;
71080;SDS011;58740;50.672;18.690;2024-01-27T14:11:18;12.70;;;5.20;;
71080;SDS011;58740;50.672;18.690;2024-01-27T14:13:51;18.10;;;6.60;;
71080;SDS011;58740;50.672;18.690;2024-01-27T14:16:25;15.60;;;5.40;;
71080;SDS011;58740;50.672;18.690;2024-01-27T14:18:59;18.00;;;6.10;;
71080;SDS011;58740;50.672;18.690;2024-01-27T14:21:32;12.40;;;5.10;;
71080;SDS011;58740;50.672;18.690;2024-01-27T14:24:08;21.10;;;7.40;;
71080;SDS011;58740;50.672;18.690;2024-01-27T14:26:41;18.60;;;6.20;;
71080;SDS011;58740;50.672;18.690;2024-01-27T14:29:14;13.80;;;5.90;;
71080;SDS011;58740;50.672;18.690;2024-01-27T14:31:48;22.80;;;8.80;;
71080;SDS011;58740;50.672;18.690;2024-01-27T14:34:21;20.50;;;9.20;;
71080;SDS011;58740;50.672;18.690;2024-01-27T14:36:55;29.20;;;13.10;;
71080;SDS011;58740;50.672;18.690;2024-01-27T14:39:28;30.50;;;14.30;;
71080;SDS011;58740;50.672;18.690;2024-01-27T14:42:03;30.60;;;11.50;;
71080;SDS011;58740;50.672;18.690;2024-01-27T14:44:38;22.60;;;11.90;;
71080;SDS011;58740;50.672;18.690;2024-01-27T14:50:40;52.30;;;25.40;;
71080;SDS011;58740;50.672;18.690;2024-01-27T14:53:13;46.60;;;19.90;;
71080;SDS011;58740;50.672;18.690;2024-01-27T14:55:46;126.50;;;48.80;;
71080;SDS011;58740;50.672;18.690;2024-01-27T14:58:20;92.60;;;38.90;;
71080;SDS011;58740;50.672;18.690;2024-01-27T15:00:54;52.10;;;19.60;;
71080;SDS011;58740;50.672;18.690;2024-01-27T15:03:27;27.60;;;9.70;;
71080;SDS011;58740;50.672;18.690;2024-01-27T15:06:01;17.60;;;7.70;;
71080;SDS011;58740;50.672;18.690;2024-01-27T15:08:35;25.60;;;8.10;;